WetterOnline ( https://www.wetteronline.de )

Wetter aktuell Morscheid

Aktuelles Wetter: Trier/Petrisberg (273m)

6-stündlich | Neueste Meldungen
Ortszeit Temperatur Wetter
Mi, 17.07. 14:00 23.7° C leicht bewölkt
Mi, 17.07. 8:00 13.1° C leicht bewölkt
Mi, 17.07. 2:00 14.1° C wolkenlos
Di, 16.07. 20:00 23.2° C leicht bewölkt
Di, 16.07. 14:00 19.9° C fast wolkenlos
Di, 16.07. 8:00 10.7° C wolkenlos
Di, 16.07. 2:00 11.1° C wolkenlos
Mo, 15.07. 20:00 18.8° C leicht bewölkt
Ortszeit Temperatur Wetter
Mi, 17.07. 16:30 26.8° C fast wolkenlos
Mi, 17.07. 16:20 26.8° C fast wolkenlos
Mi, 17.07. 16:10 25.9° C fast wolkenlos
Mi, 17.07. 16:00 25.2° C wolkenlos
Mi, 17.07. 15:50 25.2° C wolkenlos
Mi, 17.07. 15:40 24.6° C wolkenlos
Mi, 17.07. 15:30 25.7° C wolkenlos
Mi, 17.07. 15:00 24.2° C leicht bewölkt
Mi, 17.07. 14:30 23.9° C leicht bewölkt
Mi, 17.07. 14:00 23.7° C leicht bewölkt
Mi, 17.07. 13:30 24.6° C leicht bewölkt
Ortszeit Relative Feuchte Sichtweite
Mi, 17.07. 14:00 41% 60 km
Mi, 17.07. 8:00 84% 20 km
Mi, 17.07. 2:00 77% 35 km
Di, 16.07. 20:00 42% 70 km
Di, 16.07. 14:00 47% 40 km
Di, 16.07. 8:00 88% 23 km
Di, 16.07. 2:00 84% 45 km
Mo, 15.07. 20:00 54% 70 km
Ortszeit Relative Feuchte Sichtweite
Mi, 17.07. 16:30 32% 60 km
Mi, 17.07. 16:20 32% -
Mi, 17.07. 16:10 34% -
Mi, 17.07. 16:00 36% 55 km
Mi, 17.07. 15:50 36% -
Mi, 17.07. 15:40 36% -
Mi, 17.07. 15:30 40% 55 km
Mi, 17.07. 15:00 40% 50 km
Mi, 17.07. 14:30 43% 60 km
Mi, 17.07. 14:00 41% 60 km
Mi, 17.07. 13:30 44% 45 km
Ortszeit Niederschlagsmenge Niederschlagsart
Mi, 17.07. 14:00 0.0 l/m2 in 6 Std. -
Mi, 17.07. 8:00 0.0 l/m2 in 12 Std. -
Mi, 17.07. 2:00 0.0 l/m2 in 6 Std. -
Di, 16.07. 20:00 0.0 l/m2 in 12 Std. -
Di, 16.07. 14:00 0.0 l/m2 in 6 Std. -
Di, 16.07. 8:00 0.0 l/m2 in 12 Std. -
Di, 16.07. 2:00 0.0 l/m2 in 6 Std. -
Mo, 15.07. 20:00 0.0 l/m2 in 12 Std. -
Ortszeit Niederschlagsmenge Niederschlagsart
Mi, 17.07. 16:30 0.0 l/m2 in 1 Std. -
Mi, 17.07. 16:20 keine Meldung -
Mi, 17.07. 16:10 keine Meldung -
Mi, 17.07. 16:00 0.0 l/m2 in 1 Std. -
Mi, 17.07. 15:50 keine Meldung -
Mi, 17.07. 15:40 keine Meldung -
Mi, 17.07. 15:30 0.0 l/m2 in 1 Std. -
Mi, 17.07. 15:00 0.0 l/m2 in 1 Std. -
Mi, 17.07. 14:30 0.0 l/m2 in 1 Std. -
Mi, 17.07. 14:00 0.0 l/m2 in 1 Std. -
Mi, 17.07. 13:30 0.0 l/m2 in 1 Std. -
Ortszeit Stärke Spitze Richtung
km/h Bft. km/h Grad Sektor
Mi, 17.07. 14:00 4 1 18 130° SO
Mi, 17.07. 8:00 7 2 18 30° NO
Mi, 17.07. 2:00 11 2 32 20° N
Di, 16.07. 20:00 7 2 18 230° SW
Di, 16.07. 14:00 6 1 20 210° SW
Di, 16.07. 8:00 4 1 14 50° NO
Di, 16.07. 2:00 11 2 36 10° N
Mo, 15.07. 20:00 18 3 32 20° N
Ortszeit Stärke Spitze Richtung
km/h Bft. km/h Grad Sektor
Mi, 17.07. 16:30 7 2 18 240° SW
Mi, 17.07. 16:20 7 2 - 240° SW
Mi, 17.07. 16:10 7 2 - 190° S
Mi, 17.07. 16:00 9 2 19 320° NW
Mi, 17.07. 15:50 9 2 - 320° NW
Mi, 17.07. 15:40 7 2 - 220° SW
Mi, 17.07. 15:30 4 1 14 280° W
Mi, 17.07. 15:00 7 2 18 20° N
Mi, 17.07. 14:30 7 2 14 360° N
Mi, 17.07. 14:00 4 1 14 130° SO
Mi, 17.07. 13:30 7 2 14 170° S
Ortszeit Untergrenze Bedeckung Gattung
total tief tief mittel hoch
Mi, 17.07. 14:00 9000 m 7/8 0/8 - - -
Mi, 17.07. 8:00 10500 m 6/8 0/8 - - -
Mi, 17.07. 2:00 - 0/8 0/8 - - -
Di, 16.07. 20:00 9000 m 8/8 0/8 - - -
Di, 16.07. 14:00 10500 m 1/8 0/8 - - -
Di, 16.07. 8:00 - 0/8 0/8 - - -
Di, 16.07. 2:00 - 0/8 0/8 - - -
Mo, 15.07. 20:00 1290 m 6/8 1/8 - - -
Ortszeit Bedeckungsgrad in Achtel und Wolkenuntergrenze
Mi, 17.07. 16:30 1(10500m)
Mi, 17.07. 16:20 1(10500m)
Mi, 17.07. 16:10 2(10500m)
Mi, 17.07. 16:00 keine Wolken
Mi, 17.07. 15:50 keine Wolken
Mi, 17.07. 15:40 keine Wolken
Mi, 17.07. 15:30 keine Wolken
Mi, 17.07. 15:00 3(9000m)
Mi, 17.07. 14:30 4(9000m) 6(9000m)
Mi, 17.07. 14:00 7(9000m)
Mi, 17.07. 13:30 1(7800m) 4(9000m) 6(9000m)
Ortszeit Luftdruck NN (hPa) Tendenz (hPa in 3 Std.)
Mi, 17.07. 14:00 1014 - 1,0
Mi, 17.07. 8:00 1016 - 0,2
Mi, 17.07. 2:00 1017 + 0,5
Di, 16.07. 20:00 1015 - 0,9
Di, 16.07. 14:00 1018 - 0,9
Di, 16.07. 8:00 1020 + 0,6
Di, 16.07. 2:00 1020 0,0
Mo, 15.07. 20:00 1018 - 0,5
Ortszeit Luftdruck NN (hPa) Tendenz (hPa in 3 Std.)
Mi, 17.07. 16:30 1013 - 1,2
Mi, 17.07. 16:20 1013 keine Meldung
Mi, 17.07. 16:10 1013 keine Meldung
Mi, 17.07. 16:00 1013 - 1,1
Mi, 17.07. 15:50 1013 keine Meldung
Mi, 17.07. 15:40 1013 keine Meldung
Mi, 17.07. 15:30 1013 - 1,1
Mi, 17.07. 15:00 1013 - 1,1
Mi, 17.07. 14:30 1013 - 1,1
Mi, 17.07. 14:00 1014 - 1,0
Mi, 17.07. 13:30 1014 - 0,7
Ortszeit Schneehöhe (cm)
Mi, 17.07. 14:00 -
Mi, 17.07. 8:00 -
Mi, 17.07. 2:00 -
Di, 16.07. 20:00 -
Di, 16.07. 14:00 -
Di, 16.07. 8:00 -
Di, 16.07. 2:00 -
Mo, 15.07. 20:00 -
Ortszeit Schneehöhe (cm)
Mi, 17.07. 16:30 -
Mi, 17.07. 16:20 -
Mi, 17.07. 16:10 -
Mi, 17.07. 16:00 -
Mi, 17.07. 15:50 -
Mi, 17.07. 15:40 -
Mi, 17.07. 15:30 -
Mi, 17.07. 15:00 -
Mi, 17.07. 14:30 -
Mi, 17.07. 14:00 -
Mi, 17.07. 13:30 -
Link zu dieser Seite / Seite empfehlen

Das Wetter in ...